createdAt,value
2022-10-08T00:00:23.093Z,9.719111
2022-10-08T00:01:23.124Z,9.719113
2022-10-08T00:02:23.072Z,9.719110
2022-10-08T00:03:23.065Z,9.719123
2022-10-08T00:04:23.052Z,9.719074
2022-10-08T00:05:23.043Z,9.719032
2022-10-08T00:06:23.021Z,9.719072
2022-10-08T00:07:23.025Z,9.719057
2022-10-08T00:08:22.994Z,9.719160
2022-10-08T00:09:23.010Z,9.719106
2022-10-08T00:10:22.975Z,9.719023
2022-10-08T00:11:22.983Z,9.719043
2022-10-08T00:12:22.964Z,9.719040
2022-10-08T00:13:22.954Z,9.719024
2022-10-08T00:14:22.963Z,9.719229
2022-10-08T00:15:22.938Z,9.719223
2022-10-08T00:16:22.985Z,9.719028
2022-10-08T00:17:22.901Z,9.719091
2022-10-08T00:18:22.921Z,9.719137
2022-10-08T00:19:22.915Z,9.719099
2022-10-08T00:20:22.880Z,9.718972
2022-10-08T00:21:22.872Z,9.718987
2022-10-08T00:22:22.882Z,9.719106
2022-10-08T00:23:22.844Z,9.719061
2022-10-08T00:24:22.838Z,9.719063
2022-10-08T00:25:22.824Z,9.719003
2022-10-08T00:26:22.887Z,9.719089
2022-10-08T00:27:22.821Z,9.719136
2022-10-08T00:28:22.848Z,9.719178
2022-10-08T00:29:22.813Z,9.719187
2022-10-08T00:30:22.787Z,9.719185
2022-10-08T00:31:22.852Z,9.719147
2022-10-08T00:32:22.769Z,9.719130
2022-10-08T00:33:22.754Z,9.719202
2022-10-08T00:34:22.755Z,9.719178
2022-10-08T00:35:22.724Z,9.719213
2022-10-08T00:36:22.724Z,9.719264
2022-10-08T00:37:22.706Z,9.719259
2022-10-08T00:38:22.719Z,9.719225
2022-10-08T00:39:22.706Z,9.719205
2022-10-08T00:40:22.677Z,9.719182
2022-10-08T00:41:22.704Z,9.719221
2022-10-08T00:42:22.654Z,9.719203
2022-10-08T00:43:26.035Z,9.719090
2022-10-08T00:44:23.648Z,9.719100
2022-10-08T00:45:22.680Z,9.719073
2022-10-08T00:46:22.629Z,9.719084
2022-10-08T00:47:22.616Z,9.719097
2022-10-08T00:48:22.594Z,9.719203
2022-10-08T00:49:23.588Z,9.719167
2022-10-08T00:50:22.604Z,9.719131
2022-10-08T00:51:22.565Z,9.719111
2022-10-08T00:52:22.553Z,9.719157
2022-10-08T00:53:22.576Z,9.719129
2022-10-08T00:54:22.570Z,9.719135
2022-10-08T00:55:22.529Z,9.719114
2022-10-08T00:56:22.542Z,9.719092
2022-10-08T00:57:22.507Z,9.719207
2022-10-08T00:58:22.513Z,9.719074
2022-10-08T00:59:22.514Z,9.719194
2022-10-08T01:00:22.492Z,9.719193
2022-10-08T01:01:22.572Z,9.719175
2022-10-08T01:02:22.515Z,9.719199
2022-10-08T01:03:22.446Z,9.719122
2022-10-08T01:04:22.433Z,9.719237
2022-10-08T01:05:22.443Z,9.719207
2022-10-08T01:06:22.432Z,9.719255
2022-10-08T01:07:22.425Z,9.719241
2022-10-08T01:08:22.398Z,9.719225
2022-10-08T01:09:22.389Z,9.719089
2022-10-08T01:10:22.377Z,9.719129
2022-10-08T01:11:22.373Z,9.719215
2022-10-08T01:12:22.401Z,9.719138
2022-10-08T01:13:22.361Z,9.719063
2022-10-08T01:14:22.336Z,9.719005
2022-10-08T01:15:22.336Z,9.719060
2022-10-08T01:16:22.363Z,9.719023
2022-10-08T01:17:22.311Z,9.719051
2022-10-08T01:18:22.322Z,9.719012
2022-10-08T01:19:22.297Z,9.719042
2022-10-08T01:20:22.282Z,9.719009
2022-10-08T01:21:22.269Z,9.719099
2022-10-08T01:22:22.293Z,9.719189
2022-10-08T01:23:22.260Z,9.719131
2022-10-08T01:24:22.241Z,9.719098
2022-10-08T01:25:22.228Z,9.719016
2022-10-08T01:26:22.233Z,9.719036
2022-10-08T01:27:22.234Z,9.719062
2022-10-08T01:28:22.257Z,9.719052
2022-10-08T01:29:22.211Z,9.719048
2022-10-08T01:30:22.176Z,9.719091
2022-10-08T01:31:22.251Z,9.719098
2022-10-08T01:32:22.187Z,9.718989
2022-10-08T01:33:22.173Z,9.718920
2022-10-08T01:34:22.139Z,9.718823
2022-10-08T01:35:22.164Z,9.718801
2022-10-08T01:36:22.119Z,9.718793
2022-10-08T01:37:22.132Z,9.718787
2022-10-08T01:38:22.113Z,9.718790
2022-10-08T01:39:22.100Z,9.718795
2022-10-08T01:40:22.101Z,9.718682
2022-10-08T01:41:22.076Z,9.718783
2022-10-08T01:42:22.068Z,9.718904
2022-10-08T01:43:22.054Z,9.718979
2022-10-08T01:44:22.039Z,9.719062
2022-10-08T01:45:22.089Z,9.718959
2022-10-08T01:46:22.039Z,9.719023
2022-10-08T01:47:22.015Z,9.719028
2022-10-08T01:48:22.008Z,9.718983
2022-10-08T01:49:22.002Z,9.718956
2022-10-08T01:50:21.981Z,9.718827
2022-10-08T01:51:21.995Z,9.718813
2022-10-08T01:52:21.966Z,9.719220
2022-10-08T01:53:21.965Z,9.719308
2022-10-08T01:54:21.949Z,9.719080
2022-10-08T01:55:21.938Z,9.719214
2022-10-08T01:56:21.938Z,9.718798
2022-10-08T01:57:21.917Z,9.718603
2022-10-08T01:58:21.922Z,9.718755
2022-10-08T01:59:21.890Z,9.718951
2022-10-08T02:00:21.885Z,9.718812
2022-10-08T02:01:21.949Z,9.718776
2022-10-08T02:02:21.951Z,9.718932
2022-10-08T02:03:21.869Z,9.719090
2022-10-08T02:04:21.859Z,9.719067
2022-10-08T02:05:21.843Z,9.719107
2022-10-08T02:06:21.837Z,9.719281
2022-10-08T02:07:21.832Z,9.719440
2022-10-08T02:08:21.803Z,9.719238
2022-10-08T02:09:21.798Z,9.719282
2022-10-08T02:10:21.790Z,9.719308
2022-10-08T02:11:21.800Z,9.719288
2022-10-08T02:12:21.776Z,9.719316
2022-10-08T02:13:21.759Z,9.719216
2022-10-08T02:14:21.772Z,9.719153
2022-10-08T02:15:21.734Z,9.719227
2022-10-08T02:16:21.775Z,9.719215
2022-10-08T02:17:21.713Z,9.719197
2022-10-08T02:18:21.707Z,9.719208
2022-10-08T02:19:21.718Z,9.719198
2022-10-08T02:20:21.688Z,9.719132
2022-10-08T02:21:21.700Z,9.719213
2022-10-08T02:22:21.684Z,9.719139
2022-10-08T02:23:21.660Z,9.719089
2022-10-08T02:24:21.667Z,9.718950
2022-10-08T02:25:21.653Z,9.719120
2022-10-08T02:26:21.625Z,9.719094
2022-10-08T02:27:21.623Z,9.719199
2022-10-08T02:28:53.518Z,9.719151
2022-10-08T02:29:21.602Z,9.719253
2022-10-08T02:30:21.586Z,9.719180
2022-10-08T02:31:21.653Z,9.719289
2022-10-08T02:32:21.573Z,9.719188
2022-10-08T02:33:22.573Z,9.719225
2022-10-08T02:34:21.554Z,9.719317
2022-10-08T02:35:21.538Z,9.719131
2022-10-08T02:36:21.541Z,9.719077
2022-10-08T02:37:21.531Z,9.719119
2022-10-08T02:38:21.508Z,9.719173
2022-10-08T02:39:21.503Z,9.718961
2022-10-08T02:40:21.505Z,9.719166
2022-10-08T02:41:21.474Z,9.719155
2022-10-08T02:42:21.485Z,9.719147
2022-10-08T02:43:21.473Z,9.719160
2022-10-08T02:44:21.468Z,9.719207
2022-10-08T02:45:21.454Z,9.719220
2022-10-08T02:46:21.542Z,9.719242
2022-10-08T02:47:21.427Z,9.719301
2022-10-08T02:48:21.404Z,9.719178
2022-10-08T02:49:21.417Z,9.719241
2022-10-08T02:50:21.395Z,9.719275
2022-10-08T02:51:21.381Z,9.719301
2022-10-08T02:52:21.389Z,9.719318
2022-10-08T02:53:21.380Z,9.718985
2022-10-08T02:54:21.351Z,9.718781
2022-10-08T02:55:21.343Z,9.718961
2022-10-08T02:56:21.337Z,9.718900
2022-10-08T02:57:21.330Z,9.719082
2022-10-08T02:58:21.310Z,9.719065
2022-10-08T02:59:21.335Z,9.719026
2022-10-08T03:00:21.286Z,9.718985
2022-10-08T03:01:21.339Z,9.719060
2022-10-08T03:02:21.340Z,9.719108
2022-10-08T03:03:21.269Z,9.719127
2022-10-08T03:04:21.273Z,9.719082
2022-10-08T03:05:21.236Z,9.719115
2022-10-08T03:06:21.235Z,9.719131
2022-10-08T03:07:21.236Z,9.719114
2022-10-08T03:08:21.205Z,9.719110
2022-10-08T03:09:21.191Z,9.719136
2022-10-08T03:10:21.195Z,9.719048
2022-10-08T03:11:21.197Z,9.718946
2022-10-08T03:12:21.168Z,9.719021
2022-10-08T03:13:21.187Z,9.719016
2022-10-08T03:14:21.143Z,9.719074
2022-10-08T03:15:21.158Z,9.719059
2022-10-08T03:16:21.169Z,9.719075
2022-10-08T03:17:21.108Z,9.719032
2022-10-08T03:18:21.114Z,9.718957
2022-10-08T03:19:21.114Z,9.718997
2022-10-08T03:20:21.095Z,9.719064
2022-10-08T03:21:21.098Z,9.719162
2022-10-08T03:22:21.076Z,9.719109
2022-10-08T03:23:21.067Z,9.719069
2022-10-08T03:24:21.052Z,9.719136
2022-10-08T03:25:21.057Z,9.719166
2022-10-08T03:26:21.038Z,9.719181
2022-10-08T03:27:21.026Z,9.719136
2022-10-08T03:28:21.096Z,9.719178
2022-10-08T03:29:21.005Z,9.719216
2022-10-08T03:30:20.991Z,9.719172
2022-10-08T03:31:21.006Z,9.719098
2022-10-08T03:32:20.965Z,9.719172
2022-10-08T03:33:20.954Z,9.719157
2022-10-08T03:34:20.961Z,9.719131
2022-10-08T03:35:20.944Z,9.719144
2022-10-08T03:36:20.946Z,9.719202
2022-10-08T03:37:20.923Z,9.719161
2022-10-08T03:38:20.910Z,9.719167
2022-10-08T03:39:20.914Z,9.719216
2022-10-08T03:40:20.898Z,9.719235
2022-10-08T03:41:20.884Z,9.719220
2022-10-08T03:42:20.888Z,9.719232
2022-10-08T03:43:20.865Z,9.719169
2022-10-08T03:44:20.869Z,9.719227
2022-10-08T03:45:20.840Z,9.719269
2022-10-08T03:46:20.903Z,9.719204
2022-10-08T03:47:20.822Z,9.719272
2022-10-08T03:48:20.817Z,9.719201
2022-10-08T03:49:20.820Z,9.719199
2022-10-08T03:50:20.785Z,9.719262
2022-10-08T03:51:20.769Z,9.719294
2022-10-08T03:52:20.780Z,9.719103
2022-10-08T03:53:20.753Z,9.719263
2022-10-08T03:54:20.761Z,9.719225
2022-10-08T03:55:20.743Z,9.719183
2022-10-08T03:56:20.733Z,9.719210
2022-10-08T03:57:20.780Z,9.719239
2022-10-08T03:58:20.714Z,9.719250
2022-10-08T03:59:20.698Z,9.719296
2022-10-08T04:00:20.685Z,9.719275
2022-10-08T04:01:20.723Z,9.719266
2022-10-08T04:02:20.759Z,9.719242
2022-10-08T04:03:20.664Z,9.719134
2022-10-08T04:04:25.260Z,9.719111
2022-10-08T04:05:21.640Z,9.719152
2022-10-08T04:06:20.655Z,9.719076
2022-10-08T04:07:20.614Z,9.719170
2022-10-08T04:08:20.649Z,9.719020
2022-10-08T04:09:20.607Z,9.719200
2022-10-08T04:10:20.596Z,9.719216
2022-10-08T04:11:20.602Z,9.719138
2022-10-08T04:12:20.578Z,9.719263
2022-10-08T04:13:20.589Z,9.719202
2022-10-08T04:14:20.560Z,9.719234
2022-10-08T04:15:20.538Z,9.719216
2022-10-08T04:16:20.600Z,9.719221
2022-10-08T04:17:20.545Z,9.719247
2022-10-08T04:18:20.511Z,9.719254
2022-10-08T04:19:20.533Z,9.719189
2022-10-08T04:20:20.489Z,9.719188
2022-10-08T04:21:20.494Z,9.719157
2022-10-08T04:22:20.472Z,9.719103
2022-10-08T04:23:20.472Z,9.719136
2022-10-08T04:24:20.469Z,9.719117
2022-10-08T04:25:20.462Z,9.719027
2022-10-08T04:26:20.444Z,9.719232
2022-10-08T04:27:20.427Z,9.719294
2022-10-08T04:28:20.462Z,9.719238
2022-10-08T04:29:20.430Z,9.719218
2022-10-08T04:30:20.414Z,9.719228
2022-10-08T04:31:20.407Z,9.719258
2022-10-08T04:32:20.380Z,9.719276
2022-10-08T04:33:20.472Z,9.719272
2022-10-08T04:34:20.376Z,9.719215
2022-10-08T04:35:20.348Z,9.719222
2022-10-08T04:36:20.335Z,9.719277
2022-10-08T04:37:20.335Z,9.719313
2022-10-08T04:38:20.321Z,9.719371
2022-10-08T04:39:20.323Z,9.719320
2022-10-08T04:40:20.317Z,9.719289
2022-10-08T04:41:20.294Z,9.719370
2022-10-08T04:42:20.275Z,9.719345
2022-10-08T04:43:20.266Z,9.719303
2022-10-08T04:44:20.267Z,9.719329
2022-10-08T04:45:20.271Z,9.719390
2022-10-08T04:46:20.273Z,9.719483
2022-10-08T04:47:20.222Z,9.719439
2022-10-08T04:48:20.227Z,9.719570
2022-10-08T04:49:20.227Z,9.719542
2022-10-08T04:50:20.196Z,9.719392
2022-10-08T04:51:20.183Z,9.719148
2022-10-08T04:52:20.171Z,9.719352
2022-10-08T04:53:20.164Z,9.719425
2022-10-08T04:54:20.176Z,9.719431
2022-10-08T04:55:20.147Z,9.719571
2022-10-08T04:56:20.159Z,9.719503
2022-10-08T04:57:20.126Z,9.719368
2022-10-08T04:58:20.113Z,9.719431
2022-10-08T04:59:20.100Z,9.719447
2022-10-08T05:00:20.090Z,9.719304
2022-10-08T05:01:20.213Z,9.719350
2022-10-08T05:02:20.173Z,9.719343
2022-10-08T05:03:20.071Z,9.719366
2022-10-08T05:04:20.102Z,9.719312
2022-10-08T05:05:20.062Z,9.719220
2022-10-08T05:06:20.039Z,9.719315
2022-10-08T05:07:20.041Z,9.719260
2022-10-08T05:08:20.033Z,9.719324
2022-10-08T05:09:20.025Z,9.719203
2022-10-08T05:10:20.010Z,9.719357
2022-10-08T05:11:20.003Z,9.719330
2022-10-08T05:12:19.987Z,9.719464
2022-10-08T05:13:19.979Z,9.719324
2022-10-08T05:14:19.986Z,9.719393
2022-10-08T05:15:19.959Z,9.719102
2022-10-08T05:16:19.983Z,9.719193
2022-10-08T05:17:19.932Z,9.719198
2022-10-08T05:18:19.917Z,9.719163
2022-10-08T05:19:19.940Z,9.719181
2022-10-08T05:20:19.898Z,9.719345
2022-10-08T05:21:19.903Z,9.719243
2022-10-08T05:22:19.875Z,9.719384
2022-10-08T05:23:19.875Z,9.719325
2022-10-08T05:24:19.916Z,9.719201
2022-10-08T05:25:19.843Z,9.719305
2022-10-08T05:26:19.837Z,9.719395
2022-10-08T05:27:19.825Z,9.719399
2022-10-08T05:28:19.846Z,9.719323
2022-10-08T05:29:19.831Z,9.719243
2022-10-08T05:30:22.002Z,9.719419
2022-10-08T05:31:19.952Z,9.719361
2022-10-08T05:32:19.801Z,9.719351
2022-10-08T05:33:19.764Z,9.719608
2022-10-08T05:34:19.765Z,9.719304
2022-10-08T05:35:19.753Z,9.719290
2022-10-08T05:36:19.744Z,9.719498
2022-10-08T05:37:19.730Z,9.719626
2022-10-08T05:38:19.740Z,9.719414
2022-10-08T05:39:19.733Z,9.719420
2022-10-08T05:40:19.697Z,9.719235
2022-10-08T05:41:19.673Z,9.719406
2022-10-08T05:42:19.681Z,9.719201
2022-10-08T05:43:19.668Z,9.719183
2022-10-08T05:44:19.683Z,9.719248
2022-10-08T05:45:19.655Z,9.719398
2022-10-08T05:46:19.681Z,9.719473
2022-10-08T05:47:19.636Z,9.719370
2022-10-08T05:48:19.611Z,9.719183
2022-10-08T05:49:19.630Z,9.719229
2022-10-08T05:50:19.595Z,9.719256
2022-10-08T05:51:19.589Z,9.719101
2022-10-08T05:52:19.582Z,9.719084
2022-10-08T05:53:19.576Z,9.719145
2022-10-08T05:54:19.577Z,9.719186
2022-10-08T05:55:19.538Z,9.719212
2022-10-08T05:56:20.536Z,9.719203
2022-10-08T05:57:19.539Z,9.719070
2022-10-08T05:58:19.550Z,9.719107
2022-10-08T05:59:19.503Z,9.719242
2022-10-08T06:00:19.495Z,9.719197
2022-10-08T06:01:19.484Z,9.719147
2022-10-08T06:02:19.475Z,9.719256
2022-10-08T06:03:19.487Z,9.719201
2022-10-08T06:04:19.589Z,9.718965
2022-10-08T06:05:19.442Z,9.719069
2022-10-08T06:06:19.445Z,9.719151
2022-10-08T06:07:19.477Z,9.719111
2022-10-08T06:08:19.423Z,9.718993
2022-10-08T06:09:19.414Z,9.719036
2022-10-08T06:10:19.400Z,9.719119
2022-10-08T06:11:19.386Z,9.719081
2022-10-08T06:12:19.400Z,9.719009
2022-10-08T06:13:19.372Z,9.718964
2022-10-08T06:14:19.358Z,9.719004
2022-10-08T06:15:19.353Z,9.719014
2022-10-08T06:16:19.370Z,9.719223
2022-10-08T06:17:19.326Z,9.719129
2022-10-08T06:18:19.340Z,9.719072
2022-10-08T06:19:19.305Z,9.719035
2022-10-08T06:20:19.304Z,9.719107
2022-10-08T06:21:19.286Z,9.719177
2022-10-08T06:22:19.275Z,9.719270
2022-10-08T06:23:19.288Z,9.719311
2022-10-08T06:24:19.265Z,9.719290
2022-10-08T06:25:19.247Z,9.719146
2022-10-08T06:26:19.243Z,9.719090
2022-10-08T06:27:19.246Z,9.719155
2022-10-08T06:28:19.262Z,9.719149
2022-10-08T06:29:19.204Z,9.719261
2022-10-08T06:30:19.205Z,9.719204
2022-10-08T06:31:19.251Z,9.719272
2022-10-08T06:32:19.187Z,9.719321
2022-10-08T06:33:19.171Z,9.719390
2022-10-08T06:34:19.164Z,9.719211
2022-10-08T06:35:19.178Z,9.719165
2022-10-08T06:36:19.157Z,9.719184
2022-10-08T06:37:19.127Z,9.719260
2022-10-08T06:38:19.123Z,9.719206
2022-10-08T06:39:19.121Z,9.719201
2022-10-08T06:40:19.131Z,9.719194
2022-10-08T06:41:19.117Z,9.719183
2022-10-08T06:42:19.085Z,9.719187
2022-10-08T06:43:19.074Z,9.719191
2022-10-08T06:44:19.091Z,9.719168
2022-10-08T06:45:19.046Z,9.719187
2022-10-08T06:46:19.082Z,9.719231
2022-10-08T06:47:19.062Z,9.719193
2022-10-08T06:48:19.018Z,9.719164
2022-10-08T06:49:19.019Z,9.719158
2022-10-08T06:50:19.005Z,9.719227
2022-10-08T06:51:18.996Z,9.719239
2022-10-08T06:52:18.999Z,9.719233
2022-10-08T06:53:19.006Z,9.719239
2022-10-08T06:54:18.971Z,9.719211
2022-10-08T06:55:18.964Z,9.719188
2022-10-08T06:56:18.935Z,9.719106
2022-10-08T06:57:18.958Z,9.719139
2022-10-08T06:58:18.919Z,9.719170
2022-10-08T06:59:18.933Z,9.719213
2022-10-08T07:00:18.904Z,9.719145
2022-10-08T07:01:19.007Z,9.719139
2022-10-08T07:02:18.902Z,9.719089
2022-10-08T07:03:18.885Z,9.719209
2022-10-08T07:04:18.869Z,9.719117
2022-10-08T07:05:18.877Z,9.719132
2022-10-08T07:06:18.845Z,9.719267
2022-10-08T07:07:18.847Z,9.718984
2022-10-08T07:08:18.851Z,9.718872
2022-10-08T07:09:18.803Z,9.719129
2022-10-08T07:10:18.817Z,9.719481
2022-10-08T07:11:18.782Z,9.719145
2022-10-08T07:12:18.780Z,9.719320
2022-10-08T07:13:18.784Z,9.719615
2022-10-08T07:14:18.782Z,9.720029
2022-10-08T07:15:18.754Z,9.719748
2022-10-08T07:16:21.138Z,9.719715
2022-10-08T07:17:19.743Z,9.719709
2022-10-08T07:18:18.719Z,9.719591
2022-10-08T07:19:18.729Z,9.719254
2022-10-08T07:20:18.704Z,9.719585
2022-10-08T07:21:18.725Z,9.719938
2022-10-08T07:22:18.687Z,9.719626
2022-10-08T07:23:18.671Z,9.719516
2022-10-08T07:24:18.659Z,9.719885
2022-10-08T07:25:18.653Z,9.719707
2022-10-08T07:26:18.665Z,9.719895
2022-10-08T07:27:18.628Z,9.719857
2022-10-08T07:28:18.677Z,9.719547
2022-10-08T07:29:18.646Z,9.719687
2022-10-08T07:30:18.579Z,9.719740
2022-10-08T07:31:18.683Z,9.719625
2022-10-08T07:32:18.630Z,9.719456
2022-10-08T07:33:18.567Z,9.719446
2022-10-08T07:34:18.566Z,9.719713
2022-10-08T07:35:18.553Z,9.719445
2022-10-08T07:36:18.565Z,9.719608
2022-10-08T07:37:18.543Z,9.719488
2022-10-08T07:38:18.552Z,9.719278
2022-10-08T07:39:18.550Z,9.719254
2022-10-08T07:40:18.511Z,9.719121
2022-10-08T07:41:18.558Z,9.719380
2022-10-08T07:42:18.479Z,9.718979
2022-10-08T07:43:19.854Z,9.719232
2022-10-08T07:44:18.477Z,9.719389
2022-10-08T07:45:18.458Z,9.719295
2022-10-08T07:46:18.454Z,9.719372
2022-10-08T07:47:18.427Z,9.719288
2022-10-08T07:48:18.417Z,9.719242
2022-10-08T07:49:18.420Z,9.719192
2022-10-08T07:50:18.478Z,9.719231
2022-10-08T07:51:18.389Z,9.719197
2022-10-08T07:52:18.397Z,9.719301
2022-10-08T07:53:18.398Z,9.719295
2022-10-08T07:54:18.385Z,9.719240
2022-10-08T07:55:18.373Z,9.719304
2022-10-08T07:56:18.393Z,9.719280
2022-10-08T07:57:18.350Z,9.719244
2022-10-08T07:58:18.379Z,9.719189
2022-10-08T07:59:18.328Z,9.719173
2022-10-08T08:00:21.565Z,9.719214
2022-10-08T08:01:19.387Z,9.719249
2022-10-08T08:02:18.320Z,9.719139
2022-10-08T08:03:18.265Z,9.719184
2022-10-08T08:04:18.259Z,9.719264
2022-10-08T08:05:18.258Z,9.719291
2022-10-08T08:06:18.237Z,9.719287
2022-10-08T08:07:18.250Z,9.719288
2022-10-08T08:08:18.228Z,9.719174
2022-10-08T08:09:18.231Z,9.719293
2022-10-08T08:10:18.214Z,9.719208
2022-10-08T08:11:18.204Z,9.719261
2022-10-08T08:12:18.222Z,9.719246
2022-10-08T08:13:18.228Z,9.719280
2022-10-08T08:14:18.164Z,9.719168
2022-10-08T08:15:18.159Z,9.719210
2022-10-08T08:16:18.197Z,9.719072
2022-10-08T08:17:18.130Z,9.719077
2022-10-08T08:18:18.183Z,9.719192
2022-10-08T08:19:18.104Z,9.719269
2022-10-08T08:20:18.113Z,9.719268
2022-10-08T08:21:18.119Z,9.719118
2022-10-08T08:22:18.105Z,9.719112
2022-10-08T08:23:18.096Z,9.719167
2022-10-08T08:24:18.070Z,9.719139
2022-10-08T08:25:18.062Z,9.719111
2022-10-08T08:26:18.060Z,9.719051
2022-10-08T08:27:18.046Z,9.719182
2022-10-08T08:28:18.102Z,9.719234
2022-10-08T08:29:49.945Z,9.719287
2022-10-08T08:30:39.011Z,9.719604
2022-10-08T08:31:18.016Z,9.719526
2022-10-08T08:32:17.985Z,9.719186
2022-10-08T08:33:17.980Z,9.719150
2022-10-08T08:34:17.982Z,9.719250
2022-10-08T08:35:17.952Z,9.719222
2022-10-08T08:36:17.985Z,9.719180
2022-10-08T08:37:17.942Z,9.718997
2022-10-08T08:38:17.943Z,9.719122
2022-10-08T08:39:17.938Z,9.719184
2022-10-08T08:40:18.899Z,9.719168
2022-10-08T08:41:20.544Z,9.719265
2022-10-08T08:42:18.911Z,9.719156
2022-10-08T08:43:17.871Z,9.719166
2022-10-08T08:44:17.869Z,9.719291
2022-10-08T08:45:41.607Z,9.719232
2022-10-08T08:46:19.887Z,9.719160
2022-10-08T08:47:17.838Z,9.719181
2022-10-08T08:48:17.832Z,9.719231
2022-10-08T08:49:17.844Z,9.719208
2022-10-08T08:50:17.807Z,9.719046
2022-10-08T08:51:17.803Z,9.719130
2022-10-08T08:52:17.784Z,9.719160
2022-10-08T08:53:17.771Z,9.719145
2022-10-08T08:54:17.762Z,9.719220
2022-10-08T08:55:17.771Z,9.719131
2022-10-08T08:56:17.743Z,9.719069
2022-10-08T08:57:17.736Z,9.718995
2022-10-08T08:58:17.718Z,9.719058
2022-10-08T08:59:17.707Z,9.719091
2022-10-08T09:00:17.721Z,9.719149
2022-10-08T09:01:17.755Z,9.719005
2022-10-08T09:02:17.677Z,9.719077
2022-10-08T09:03:17.683Z,9.719124
2022-10-08T09:04:17.673Z,9.719134
2022-10-08T09:05:17.720Z,9.719111
2022-10-08T09:06:17.640Z,9.719099
2022-10-08T09:07:17.634Z,9.719062
2022-10-08T09:08:17.641Z,9.719137
2022-10-08T09:09:17.626Z,9.719073
2022-10-08T09:10:17.601Z,9.719106
2022-10-08T09:11:17.605Z,9.719107
2022-10-08T09:12:20.852Z,9.719106
2022-10-08T09:13:18.606Z,9.719149
2022-10-08T09:14:17.563Z,9.719143
2022-10-08T09:15:17.551Z,9.719126
2022-10-08T09:16:17.580Z,9.719224
2022-10-08T09:17:17.524Z,9.719131
2022-10-08T09:18:17.538Z,9.719113
2022-10-08T09:19:17.520Z,9.719100
2022-10-08T09:20:17.547Z,9.719189
2022-10-08T09:21:17.488Z,9.719208
2022-10-08T09:22:17.489Z,9.719090
2022-10-08T09:23:17.465Z,9.719158
2022-10-08T09:24:17.468Z,9.719137
2022-10-08T09:25:17.488Z,9.719071
2022-10-08T09:26:17.469Z,9.719159
2022-10-08T09:27:17.436Z,9.719171
2022-10-08T09:28:17.460Z,9.719067
2022-10-08T09:29:17.425Z,9.719161
2022-10-08T09:30:17.401Z,9.719076
2022-10-08T09:31:17.440Z,9.719122
2022-10-08T09:32:17.399Z,9.719102
2022-10-08T09:33:17.389Z,9.719177
2022-10-08T09:34:17.368Z,9.719098
2022-10-08T09:35:17.356Z,9.719088
2022-10-08T09:36:17.361Z,9.719099
2022-10-08T09:37:17.355Z,9.719132
2022-10-08T09:38:17.335Z,9.719109
2022-10-08T09:39:17.331Z,9.719136
2022-10-08T09:40:17.312Z,9.719129
2022-10-08T09:41:17.313Z,9.719139
2022-10-08T09:42:17.296Z,9.719126
2022-10-08T09:43:17.295Z,9.719158
2022-10-08T09:44:17.268Z,9.719078
2022-10-08T09:45:22.009Z,9.719078
2022-10-08T09:46:19.292Z,9.719035
2022-10-08T09:47:17.273Z,9.719064
2022-10-08T09:48:17.226Z,9.719080
2022-10-08T09:49:17.219Z,9.719171
2022-10-08T09:50:17.206Z,9.719126
2022-10-08T09:51:17.198Z,9.719261
2022-10-08T09:52:17.635Z,9.718994
2022-10-08T09:53:18.170Z,9.719063
2022-10-08T09:54:17.165Z,9.719026
2022-10-08T09:55:17.157Z,9.719166
2022-10-08T09:56:17.142Z,9.719069
2022-10-08T09:57:17.148Z,9.718830
2022-10-08T09:58:17.118Z,9.719072
2022-10-08T09:59:17.103Z,9.719292
2022-10-08T10:00:17.137Z,9.719448
2022-10-08T10:01:17.175Z,9.719469
2022-10-08T10:02:17.086Z,9.719385
2022-10-08T10:03:17.074Z,9.719451
2022-10-08T10:04:17.074Z,9.719159
2022-10-08T10:05:17.119Z,9.719441
2022-10-08T10:06:21.135Z,9.719543
2022-10-08T10:07:18.035Z,9.719676
2022-10-08T10:08:17.018Z,9.719436
2022-10-08T10:09:17.012Z,9.719345
2022-10-08T10:10:17.001Z,9.719296
2022-10-08T10:11:17.022Z,9.719457
2022-10-08T10:12:16.990Z,9.719629
2022-10-08T10:13:16.972Z,9.719535
2022-10-08T10:14:16.977Z,9.719477
2022-10-08T10:15:16.950Z,9.719537
2022-10-08T10:16:16.994Z,9.719452
2022-10-08T10:17:16.929Z,9.719406
2022-10-08T10:18:16.922Z,9.719002
2022-10-08T10:19:16.927Z,9.718960
2022-10-08T10:20:16.933Z,9.719100
2022-10-08T10:21:16.907Z,9.719112
2022-10-08T10:22:16.882Z,9.719000
2022-10-08T10:23:16.867Z,9.718997
2022-10-08T10:24:16.870Z,9.719021
2022-10-08T10:25:16.886Z,9.718896
2022-10-08T10:26:16.837Z,9.719246
2022-10-08T10:27:16.830Z,9.719353
2022-10-08T10:28:16.891Z,9.719325
2022-10-08T10:29:16.814Z,9.719322
2022-10-08T10:30:16.806Z,9.719196
2022-10-08T10:31:16.844Z,9.719200
2022-10-08T10:32:20.867Z,9.719124
2022-10-08T10:33:17.793Z,9.719143
2022-10-08T10:34:16.776Z,9.719208
2022-10-08T10:35:16.761Z,9.719296
2022-10-08T10:36:16.740Z,9.719146
2022-10-08T10:37:16.750Z,9.719291
2022-10-08T10:38:16.732Z,9.719321
2022-10-08T10:39:16.720Z,9.719210
2022-10-08T10:40:16.756Z,9.719466
2022-10-08T10:41:16.703Z,9.719161
2022-10-08T10:42:16.709Z,9.719120
2022-10-08T10:43:16.675Z,9.719211
2022-10-08T10:44:16.674Z,9.719169
2022-10-08T10:45:16.653Z,9.719172
2022-10-08T10:46:16.672Z,9.719172
2022-10-08T10:47:16.664Z,9.719308
2022-10-08T10:48:16.619Z,9.719362
2022-10-08T10:49:16.616Z,9.719389
2022-10-08T10:50:16.658Z,9.719405
2022-10-08T10:51:16.607Z,9.719204
2022-10-08T10:52:16.596Z,9.719209
2022-10-08T10:53:16.578Z,9.719248
2022-10-08T10:54:16.559Z,9.719225
2022-10-08T10:55:16.567Z,9.719207
2022-10-08T10:56:16.540Z,9.719274
2022-10-08T10:57:16.563Z,9.719312
2022-10-08T10:58:16.530Z,9.719269
2022-10-08T10:59:16.514Z,9.719344
2022-10-08T11:00:16.586Z,9.719465
2022-10-08T11:01:16.565Z,9.719441
2022-10-08T11:02:16.511Z,9.719372
2022-10-08T11:03:16.488Z,9.719369
2022-10-08T11:04:16.457Z,9.719408
2022-10-08T11:05:16.467Z,9.719316
2022-10-08T11:06:16.444Z,9.719247
2022-10-08T11:07:16.433Z,9.719346
2022-10-08T11:08:16.419Z,9.719383
2022-10-08T11:09:16.421Z,9.719345
2022-10-08T11:10:16.415Z,9.719318
2022-10-08T11:11:17.389Z,9.719359
2022-10-08T11:12:16.394Z,9.719272
2022-10-08T11:13:16.392Z,9.719236
2022-10-08T11:14:16.372Z,9.719255
2022-10-08T11:15:16.376Z,9.719316
2022-10-08T11:16:16.407Z,9.719287
2022-10-08T11:17:19.935Z,9.719303
2022-10-08T11:18:18.334Z,9.719346
2022-10-08T11:19:16.381Z,9.719330
2022-10-08T11:20:16.324Z,9.719132
2022-10-08T11:21:16.303Z,9.719232
2022-10-08T11:22:16.287Z,9.719235
2022-10-08T11:23:16.284Z,9.719197
2022-10-08T11:24:16.284Z,9.719337
2022-10-08T11:25:16.252Z,9.719455
2022-10-08T11:26:22.380Z,9.719297
2022-10-08T11:27:18.239Z,9.719702
2022-10-08T11:28:16.237Z,9.719537
2022-10-08T11:29:16.216Z,9.719393
2022-10-08T11:30:16.392Z,9.719272
2022-10-08T11:31:16.237Z,9.719468
2022-10-08T11:32:16.194Z,9.719503
2022-10-08T11:33:16.184Z,9.719286
2022-10-08T11:34:16.171Z,9.719378
2022-10-08T11:35:16.171Z,9.719402
2022-10-08T11:36:16.168Z,9.719324
2022-10-08T11:37:16.166Z,9.719241
2022-10-08T11:38:16.122Z,9.719115
2022-10-08T11:39:16.133Z,9.718925
2022-10-08T11:40:16.115Z,9.718768
2022-10-08T11:41:16.103Z,9.718925
2022-10-08T11:42:16.104Z,9.718861
2022-10-08T11:43:16.084Z,9.718726
2022-10-08T11:44:16.090Z,9.718552